createdAt,value
2019-02-05T00:05:11.644Z,8.57
2019-02-05T00:07:41.294Z,9.43
2019-02-05T00:10:11.040Z,9.73
2019-02-05T00:12:40.748Z,12.30
2019-02-05T00:15:10.484Z,8.07
2019-02-05T00:17:40.243Z,9.77
2019-02-05T00:20:10.484Z,7.23
2019-02-05T00:22:40.084Z,8.90
2019-02-05T00:25:09.907Z,12.30
2019-02-05T00:27:39.507Z,9.27
2019-02-05T00:30:09.533Z,9.50
2019-02-05T00:32:39.124Z,7.87
2019-02-05T00:35:09.121Z,9.53
2019-02-05T00:37:38.707Z,14.07
2019-02-05T00:40:08.776Z,7.90
2019-02-05T00:42:38.634Z,10.90
2019-02-05T00:45:09.988Z,8.93
2019-02-05T00:47:39.968Z,8.43
2019-02-05T00:50:10.930Z,11.53
2019-02-05T00:52:40.577Z,7.97
2019-02-05T00:55:11.315Z,6.77
2019-02-05T00:57:40.985Z,10.33
2019-02-05T01:00:18.358Z,8.57
2019-02-05T01:02:48.035Z,10.57
2019-02-05T01:05:17.845Z,8.60
2019-02-05T01:07:47.595Z,10.47
2019-02-05T01:10:17.683Z,7.43
2019-02-05T01:12:47.390Z,12.17
2019-02-05T01:15:17.736Z,10.90
2019-02-05T01:17:47.375Z,7.83
2019-02-05T01:20:17.941Z,9.47
2019-02-05T01:22:47.887Z,7.70
2019-02-05T01:25:18.373Z,9.33
2019-02-05T01:27:48.412Z,8.63
2019-02-05T01:30:20.956Z,7.53
2019-02-05T01:32:50.831Z,15.90
2019-02-05T01:35:20.434Z,9.10
2019-02-05T01:37:50.089Z,6.50
2019-02-05T01:40:21.539Z,13.67
2019-02-05T01:42:51.298Z,8.37
2019-02-05T01:45:21.832Z,7.73
2019-02-05T01:47:51.540Z,10.33
2019-02-05T01:50:25.772Z,9.00
2019-02-05T01:52:55.567Z,6.83
2019-02-05T01:55:25.545Z,8.30
2019-02-05T01:57:55.239Z,8.57
2019-02-05T02:00:30.940Z,9.97
2019-02-05T02:03:00.653Z,9.57
2019-02-05T02:05:30.344Z,8.47
2019-02-05T02:08:00.335Z,9.20
2019-02-05T02:10:31.389Z,7.93
2019-02-05T02:13:01.032Z,7.83
2019-02-05T02:15:30.962Z,12.30
2019-02-05T02:18:00.600Z,8.70
2019-02-05T02:20:30.201Z,7.57
2019-02-05T02:23:00.084Z,7.27
2019-02-05T02:25:29.763Z,10.37
2019-02-05T02:27:59.482Z,7.90
2019-02-05T02:30:37.354Z,8.00
2019-02-05T02:33:07.769Z,9.60
2019-02-05T02:35:37.688Z,8.07
2019-02-05T02:38:07.479Z,10.13
2019-02-05T02:40:37.130Z,7.73
2019-02-05T02:43:06.761Z,8.37
2019-02-05T02:45:36.439Z,10.57
2019-02-05T02:48:06.127Z,8.20
2019-02-05T02:50:35.771Z,6.43
2019-02-05T02:53:05.458Z,8.90
2019-02-05T02:55:35.327Z,7.77
2019-02-05T02:58:05.231Z,9.80
2019-02-05T03:00:34.897Z,8.07
2019-02-05T03:03:04.607Z,9.43
2019-02-05T03:05:34.214Z,8.07
2019-02-05T03:08:03.871Z,10.03
2019-02-05T03:10:33.480Z,11.73
2019-02-05T03:13:03.059Z,12.00
2019-02-05T03:15:32.819Z,10.83
2019-02-05T03:18:02.483Z,8.63
2019-02-05T03:20:32.459Z,8.93
2019-02-05T03:23:02.066Z,8.90
2019-02-05T03:25:31.753Z,6.70
2019-02-05T03:28:01.346Z,8.77
2019-02-05T03:30:30.994Z,8.10
2019-02-05T03:33:00.591Z,9.13
2019-02-05T03:35:30.229Z,8.20
2019-02-05T03:38:00.287Z,7.33
2019-02-05T03:41:05.319Z,7.30
2019-02-05T03:43:36.464Z,7.50
2019-02-05T03:46:24.464Z,8.53
2019-02-05T03:48:55.055Z,9.43
2019-02-05T03:51:59.044Z,9.97
2019-02-05T03:55:01.221Z,8.50
2019-02-05T03:57:57.559Z,7.70
2019-02-05T04:01:04.091Z,7.33
2019-02-05T04:03:59.835Z,11.00
2019-02-05T04:06:56.243Z,8.37
2019-02-05T04:09:50.932Z,8.83
2019-02-05T04:12:45.902Z,10.47
2019-02-05T04:16:02.755Z,9.07
2019-02-05T04:19:37.769Z,10.50
2019-02-05T04:22:44.462Z,8.97
2019-02-05T04:25:55.284Z,8.10
2019-02-05T04:29:08.729Z,9.63
2019-02-05T04:32:25.474Z,7.13
2019-02-05T04:35:38.852Z,9.53
2019-02-05T04:39:07.439Z,8.70
2019-02-05T04:42:14.006Z,10.20
2019-02-05T04:45:42.964Z,8.93
2019-02-05T04:49:18.430Z,9.53
2019-02-05T04:52:37.655Z,8.20
2019-02-05T04:55:42.007Z,9.47
2019-02-05T04:59:10.855Z,8.90
2019-02-05T05:02:17.423Z,8.63
2019-02-05T05:05:22.675Z,10.47
2019-02-05T05:08:13.021Z,10.23
2019-02-05T05:10:42.678Z,8.47
2019-02-05T05:13:12.271Z,8.03
2019-02-05T05:15:41.921Z,9.87
2019-02-05T05:18:12.323Z,9.67
2019-02-05T05:20:43.795Z,7.87
2019-02-05T05:23:13.361Z,7.67
2019-02-05T05:25:43.052Z,9.90
2019-02-05T05:28:12.642Z,12.07
2019-02-05T05:30:42.272Z,9.47
2019-02-05T05:33:12.353Z,10.77
2019-02-05T05:35:44.568Z,8.97
2019-02-05T05:38:13.281Z,10.37
2019-02-05T05:40:42.997Z,10.07
2019-02-05T05:43:12.604Z,8.63
2019-02-05T05:45:42.203Z,10.90
2019-02-05T05:48:12.367Z,11.23
2019-02-05T05:50:42.121Z,11.63
2019-02-05T05:53:11.716Z,10.07
2019-02-05T05:55:41.321Z,10.07
2019-02-05T05:58:21.933Z,9.07
2019-02-05T06:00:42.193Z,7.03
2019-02-05T06:03:12.336Z,13.90
2019-02-05T06:05:42.027Z,9.23
2019-02-05T06:08:12.076Z,10.83
2019-02-05T06:10:41.676Z,10.00
2019-02-05T06:13:11.308Z,11.33
2019-02-05T06:15:40.945Z,9.37
2019-02-05T06:18:10.609Z,9.47
2019-02-05T06:20:40.199Z,11.43
2019-02-05T06:23:09.874Z,10.07
2019-02-05T06:25:39.650Z,13.63
2019-02-05T06:28:09.500Z,10.17
2019-02-05T06:30:39.085Z,8.27
2019-02-05T06:33:08.729Z,9.57
2019-02-05T06:35:38.842Z,11.93
2019-02-05T06:38:08.466Z,11.83
2019-02-05T06:40:38.058Z,10.53
2019-02-05T06:43:07.735Z,10.10
2019-02-05T06:45:37.369Z,10.37
2019-02-05T06:48:07.019Z,9.90
2019-02-05T06:50:37.087Z,12.07
2019-02-05T06:53:06.701Z,8.00
2019-02-05T06:55:36.303Z,11.80
2019-02-05T06:58:06.440Z,9.77
2019-02-05T07:00:39.100Z,12.03
2019-02-05T07:03:08.856Z,6.40
2019-02-05T07:05:38.758Z,9.33
2019-02-05T07:08:08.367Z,9.40
2019-02-05T07:10:38.031Z,9.77
2019-02-05T07:13:07.700Z,10.10
2019-02-05T07:15:37.312Z,9.73
2019-02-05T07:18:07.076Z,9.47
2019-02-05T07:20:37.159Z,8.83
2019-02-05T07:23:07.017Z,10.93
2019-02-05T07:25:36.664Z,10.80
2019-02-05T07:28:06.445Z,10.50
2019-02-05T07:30:39.144Z,14.50
2019-02-05T07:33:08.788Z,11.13
2019-02-05T07:35:38.734Z,10.03
2019-02-05T07:38:08.459Z,9.73
2019-02-05T07:40:38.108Z,12.83
2019-02-05T07:43:07.804Z,10.10
2019-02-05T07:45:37.509Z,10.17
2019-02-05T07:48:07.163Z,10.37
2019-02-05T07:50:36.862Z,10.67
2019-02-05T07:53:06.942Z,10.43
2019-02-05T07:55:36.626Z,11.93
2019-02-05T07:58:06.427Z,9.00
2019-02-05T08:00:38.923Z,10.17
2019-02-05T08:03:08.655Z,10.60
2019-02-05T08:05:38.482Z,10.30
2019-02-05T08:08:08.579Z,9.67
2019-02-05T08:10:38.444Z,13.70
2019-02-05T08:13:08.470Z,11.53
2019-02-05T08:15:38.178Z,11.63
2019-02-05T08:18:07.843Z,10.30
2019-02-05T08:20:37.466Z,8.93
2019-02-05T08:23:07.351Z,8.97
2019-02-05T08:25:37.031Z,13.83
2019-02-05T08:28:06.866Z,12.30
2019-02-05T08:30:39.635Z,9.93
2019-02-05T08:33:09.342Z,11.67
2019-02-05T08:35:39.196Z,9.93
2019-02-05T08:38:08.796Z,9.47
2019-02-05T08:40:38.493Z,11.83
2019-02-05T08:43:08.458Z,12.60
2019-02-05T08:45:38.583Z,13.83
2019-02-05T08:48:09.204Z,13.07
2019-02-05T08:50:38.907Z,9.20
2019-02-05T08:53:08.712Z,13.33
2019-02-05T08:55:38.342Z,14.47
2019-02-05T08:58:11.548Z,12.70
2019-02-05T09:00:41.351Z,10.63
2019-02-05T09:03:11.607Z,11.73
2019-02-05T09:05:41.361Z,11.60
2019-02-05T09:08:11.326Z,9.47
2019-02-05T09:10:41.363Z,11.57
2019-02-05T09:13:11.508Z,12.47
2019-02-05T09:15:41.140Z,11.20
2019-02-05T09:18:11.087Z,11.50
2019-02-05T09:20:40.828Z,11.67
2019-02-05T09:23:10.692Z,10.43
2019-02-05T09:25:40.605Z,15.80
2019-02-05T09:28:10.552Z,11.63
2019-02-05T09:30:40.185Z,15.27
2019-02-05T09:33:11.672Z,14.93
2019-02-05T09:35:42.613Z,14.63
2019-02-05T09:38:12.462Z,18.90
2019-02-05T09:40:42.136Z,11.67
2019-02-05T09:43:11.905Z,15.67
2019-02-05T09:45:41.512Z,14.37
2019-02-05T09:48:11.138Z,15.30
2019-02-05T09:50:44.687Z,11.87
2019-02-05T09:53:12.332Z,14.57
2019-02-05T09:55:42.123Z,14.93
2019-02-05T09:58:13.044Z,13.90
2019-02-05T10:00:44.511Z,12.80
2019-02-05T10:03:15.775Z,15.43
2019-02-05T10:05:46.741Z,13.27
2019-02-05T10:08:16.555Z,10.67
2019-02-05T10:10:46.243Z,13.07
2019-02-05T10:13:29.644Z,15.13
2019-02-05T10:15:59.654Z,16.47
2019-02-05T10:18:32.648Z,13.43
2019-02-05T10:21:03.153Z,12.27
2019-02-05T10:23:34.031Z,14.57
2019-02-05T10:26:04.504Z,16.70
2019-02-05T10:28:35.848Z,13.13
2019-02-05T10:31:07.334Z,14.07
2019-02-05T10:33:38.293Z,14.90
2019-02-05T10:36:08.178Z,13.23
2019-02-05T10:38:38.066Z,13.70
2019-02-05T10:41:09.250Z,17.33
2019-02-05T10:43:39.914Z,14.27
2019-02-05T10:46:11.981Z,14.33
2019-02-05T10:48:42.812Z,15.57
2019-02-05T10:51:37.360Z,15.60
2019-02-05T10:55:00.722Z,15.73
2019-02-05T11:01:37.671Z,13.80
2019-02-05T11:04:54.434Z,16.93
2019-02-05T11:07:39.235Z,14.77
2019-02-05T11:10:25.021Z,14.57
2019-02-05T11:12:54.930Z,14.20
2019-02-05T11:15:27.901Z,13.20
2019-02-05T11:18:15.195Z,13.77
2019-02-05T11:21:04.283Z,14.53
2019-02-05T11:23:32.393Z,14.37
2019-02-05T11:26:03.437Z,15.27
2019-02-05T11:28:34.553Z,12.10
2019-02-05T11:31:11.265Z,13.00
2019-02-05T11:34:28.279Z,13.20
2019-02-05T11:37:03.237Z,15.60
2019-02-05T11:39:34.451Z,16.63
2019-02-05T11:42:05.669Z,12.03
2019-02-05T11:44:36.720Z,18.57
2019-02-05T11:47:08.782Z,13.13
2019-02-05T11:49:39.172Z,13.50
2019-02-05T11:52:10.362Z,16.07
2019-02-05T11:54:41.832Z,14.20
2019-02-05T12:01:38.483Z,15.90
2019-02-05T12:04:05.966Z,14.87
2019-02-05T12:06:38.098Z,13.67
2019-02-05T12:09:24.391Z,18.13
2019-02-05T12:11:56.180Z,15.20
2019-02-05T12:14:27.819Z,14.73
2019-02-05T12:16:57.946Z,13.07
2019-02-05T12:19:34.702Z,15.17
2019-02-05T12:22:08.051Z,13.67
2019-02-05T12:24:40.415Z,12.23
2019-02-05T12:27:11.939Z,17.03
2019-02-05T12:29:43.564Z,14.80
2019-02-05T12:32:15.138Z,12.90
2019-02-05T12:34:46.555Z,17.67
2019-02-05T12:37:18.594Z,12.03
2019-02-05T12:39:50.074Z,16.20
2019-02-05T12:42:21.254Z,11.57
2019-02-05T12:45:00.682Z,16.50
2019-02-05T12:47:46.377Z,12.00
2019-02-05T12:50:37.270Z,14.10
2019-02-05T12:53:13.829Z,12.77
2019-02-05T12:56:03.546Z,14.37
2019-02-05T12:58:37.072Z,14.17
2019-02-05T13:01:13.643Z,14.20
2019-02-05T13:03:46.669Z,17.07
2019-02-05T13:06:16.754Z,15.50
2019-02-05T13:08:56.631Z,16.07
2019-02-05T13:11:28.553Z,14.77
2019-02-05T13:14:00.165Z,16.60
2019-02-05T13:16:30.271Z,14.67
2019-02-05T13:19:08.646Z,14.50
2019-02-05T13:21:53.621Z,12.27
2019-02-05T13:24:23.470Z,15.23
2019-02-05T13:26:54.317Z,16.10
2019-02-05T13:29:28.740Z,18.40
2019-02-05T13:31:58.752Z,15.10
2019-02-05T13:34:30.435Z,16.97
2019-02-05T13:37:02.075Z,16.10
2019-02-05T13:46:33.736Z,13.40
2019-02-05T13:49:05.324Z,17.17
2019-02-05T13:51:37.290Z,15.53
2019-02-05T13:54:14.161Z,15.50
2019-02-05T13:56:45.998Z,18.27
2019-02-05T13:59:20.780Z,16.53
2019-02-05T14:01:52.127Z,16.40
2019-02-05T14:04:42.968Z,15.00
2019-02-05T14:07:30.168Z,17.67
2019-02-05T14:10:04.439Z,17.03
2019-02-05T14:12:35.479Z,15.30
2019-02-05T14:15:16.405Z,15.07
2019-02-05T14:17:47.815Z,15.87
2019-02-05T14:20:19.466Z,13.60
2019-02-05T14:23:06.685Z,14.53
2019-02-05T14:25:44.621Z,16.37
2019-02-05T14:28:15.877Z,15.43
2019-02-05T14:30:54.451Z,16.97
2019-02-05T14:33:26.508Z,16.53
2019-02-05T14:35:57.446Z,17.90
2019-02-05T14:38:35.289Z,14.90
2019-02-05T14:41:07.487Z,18.40
2019-02-05T14:43:38.464Z,15.67
2019-02-05T14:46:09.487Z,18.53
2019-02-05T14:48:40.833Z,16.63
2019-02-05T14:51:12.077Z,19.60
2019-02-05T14:53:43.315Z,16.73
2019-02-05T14:56:44.205Z,18.37
2019-02-05T14:58:47.649Z,14.70
2019-02-05T15:01:28.862Z,16.63
2019-02-05T15:04:03.548Z,16.10
2019-02-05T15:06:38.951Z,18.93
2019-02-05T15:09:09.890Z,15.07
2019-02-05T15:11:41.930Z,14.77
2019-02-05T15:14:22.977Z,17.23
2019-02-05T15:16:54.164Z,21.97
2019-02-05T15:19:25.600Z,15.87
2019-02-05T15:21:59.225Z,17.27
2019-02-05T15:24:37.169Z,20.07
2019-02-05T15:27:03.159Z,17.23
2019-02-05T15:29:35.444Z,17.63
2019-02-05T15:32:15.720Z,14.20
2019-02-05T15:35:02.825Z,17.43
2019-02-05T15:37:34.791Z,16.73
2019-02-05T15:40:13.203Z,15.83
2019-02-05T15:42:47.194Z,19.73
2019-02-05T15:45:38.465Z,26.27
2019-02-05T15:48:08.534Z,17.10
2019-02-05T15:50:38.402Z,19.30
2019-02-05T15:53:08.083Z,18.00
2019-02-05T15:55:38.991Z,18.83
2019-02-05T15:58:08.771Z,19.13
2019-02-05T16:00:38.516Z,18.83
2019-02-05T16:03:09.659Z,18.77
2019-02-05T16:05:39.486Z,18.70
2019-02-05T16:08:09.380Z,19.43
2019-02-05T16:10:39.648Z,17.20
2019-02-05T16:13:09.557Z,19.00
2019-02-05T16:15:39.469Z,19.60
2019-02-05T16:18:09.732Z,18.53
2019-02-05T16:20:39.650Z,22.70
2019-02-05T16:23:09.834Z,18.43
2019-02-05T16:25:40.165Z,18.80
2019-02-05T16:28:10.046Z,18.00
2019-02-05T16:30:39.724Z,20.70
2019-02-05T16:33:09.503Z,19.23
2019-02-05T16:35:39.769Z,18.00
2019-02-05T16:38:25.848Z,16.53
2019-02-05T16:40:55.845Z,19.10
2019-02-05T16:43:27.888Z,18.57
2019-02-05T16:45:56.867Z,21.63
2019-02-05T16:48:28.531Z,20.23
2019-02-05T16:50:58.536Z,21.83
2019-02-05T16:53:28.272Z,17.67
2019-02-05T16:55:57.966Z,20.47
2019-02-05T16:58:27.883Z,20.00
2019-02-05T17:00:57.673Z,22.03
2019-02-05T17:03:27.329Z,21.87
2019-02-05T17:05:56.977Z,19.63
2019-02-05T17:08:26.664Z,18.37
2019-02-05T17:10:56.311Z,18.47
2019-02-05T17:13:26.134Z,23.10
2019-02-05T17:15:56.803Z,22.67
2019-02-05T17:18:27.296Z,21.80
2019-02-05T17:20:57.697Z,21.17
2019-02-05T17:23:28.303Z,20.27
2019-02-05T17:25:58.827Z,20.73
2019-02-05T17:28:28.604Z,23.40
2019-02-05T17:30:58.393Z,24.73
2019-02-05T17:33:29.502Z,17.93
2019-02-05T17:36:00.641Z,20.37
2019-02-05T17:38:30.969Z,19.43
2019-02-05T17:44:00.627Z,20.87
2019-02-05T17:46:31.148Z,22.33
2019-02-05T17:49:20.718Z,19.33
2019-02-05T17:51:51.331Z,20.80
2019-02-05T17:54:21.813Z,22.47
2019-02-05T17:56:58.166Z,19.73
2019-02-05T17:59:28.788Z,21.30
2019-02-05T18:01:59.354Z,24.17
2019-02-05T18:04:30.395Z,22.73
2019-02-05T18:07:00.113Z,24.37
2019-02-05T18:09:29.771Z,24.10
2019-02-05T18:11:59.533Z,23.40
2019-02-05T18:14:30.016Z,23.57
2019-02-05T18:17:10.165Z,26.00
2019-02-05T18:19:40.621Z,23.20
2019-02-05T18:22:11.371Z,23.90
2019-02-05T18:24:42.262Z,21.33
2019-02-05T18:27:13.408Z,23.13
2019-02-05T18:29:44.472Z,22.23
2019-02-05T18:32:16.085Z,25.87
2019-02-05T18:34:53.769Z,23.43
2019-02-05T18:37:25.477Z,19.90
2019-02-05T18:39:55.169Z,21.00
2019-02-05T18:42:25.359Z,19.73
2019-02-05T18:44:55.315Z,24.33
2019-02-05T18:47:25.027Z,20.80
2019-02-05T18:49:54.612Z,24.67
2019-02-05T18:52:24.279Z,21.17
2019-02-05T18:54:53.882Z,23.83
2019-02-05T18:57:24.126Z,25.03
2019-02-05T18:59:53.840Z,25.73
2019-02-05T19:02:23.538Z,19.07
2019-02-05T19:04:53.196Z,19.27
2019-02-05T19:07:24.182Z,25.93
2019-02-05T19:09:55.036Z,19.93
2019-02-05T19:12:24.713Z,23.83
2019-02-05T19:14:54.374Z,22.77
2019-02-05T19:17:24.215Z,27.37
2019-02-05T19:19:53.913Z,25.57
2019-02-05T19:22:23.608Z,27.03
2019-02-05T19:25:00.773Z,24.40
2019-02-05T19:27:30.871Z,26.70
2019-02-05T19:30:00.579Z,26.17
2019-02-05T19:32:30.640Z,26.77
2019-02-05T19:35:00.396Z,24.43
2019-02-05T19:37:30.223Z,27.67
2019-02-05T19:39:59.962Z,23.60
2019-02-05T19:42:29.997Z,25.83
2019-02-05T19:45:15.844Z,26.70
2019-02-05T19:47:48.029Z,24.83
2019-02-05T19:50:17.791Z,26.97
2019-02-05T19:52:47.677Z,24.47
2019-02-05T19:55:18.162Z,23.63
2019-02-05T19:57:48.513Z,27.23
2019-02-05T20:00:20.544Z,26.00
2019-02-05T20:03:00.845Z,27.43
2019-02-05T20:05:30.922Z,29.10
2019-02-05T20:08:00.782Z,26.27
2019-02-05T20:10:30.592Z,28.43
2019-02-05T20:13:00.658Z,23.90
2019-02-05T20:15:30.349Z,23.67
2019-02-05T20:18:00.068Z,24.53
2019-02-05T20:20:31.701Z,26.37
2019-02-05T20:23:01.554Z,24.90
2019-02-05T20:25:31.273Z,24.67
2019-02-05T20:28:01.031Z,25.43
2019-02-05T20:30:30.726Z,26.20
2019-02-05T20:33:00.543Z,24.10
2019-02-05T20:35:30.163Z,24.40
2019-02-05T20:37:59.830Z,22.83
2019-02-05T20:40:29.559Z,27.10
2019-02-05T20:42:59.417Z,23.73
2019-02-05T20:45:29.174Z,22.97
2019-02-05T20:47:58.923Z,25.93
2019-02-05T20:50:28.717Z,30.07
2019-02-05T20:52:58.780Z,25.57
2019-02-05T20:55:28.446Z,25.10
2019-02-05T20:57:58.074Z,26.20
2019-02-05T21:00:27.878Z,23.40
2019-02-05T21:02:57.479Z,29.30
2019-02-05T21:05:27.301Z,26.07
2019-02-05T21:07:57.475Z,30.87
2019-02-05T21:10:27.245Z,26.53
2019-02-05T21:12:56.894Z,25.50
2019-02-05T21:15:26.589Z,24.87
2019-02-05T21:17:56.324Z,24.40
2019-02-05T21:20:29.675Z,24.87
2019-02-05T21:22:57.439Z,24.53
2019-02-05T21:25:27.542Z,23.70
2019-02-05T21:27:58.362Z,24.43
2019-02-05T21:30:28.551Z,26.60
2019-02-05T21:32:58.622Z,24.17
2019-02-05T21:35:28.283Z,25.17
2019-02-05T21:37:58.407Z,30.80
2019-02-05T21:40:31.610Z,27.17
2019-02-05T21:43:01.511Z,26.90
2019-02-05T21:45:31.172Z,22.33
2019-02-05T21:48:00.914Z,23.50
2019-02-05T21:50:30.602Z,23.70
2019-02-05T21:53:00.723Z,23.13
2019-02-05T21:55:30.508Z,26.57
2019-02-05T21:58:00.292Z,21.13
2019-02-05T22:00:31.306Z,20.47
2019-02-05T22:03:01.021Z,23.73
2019-02-05T22:05:30.837Z,24.03
2019-02-05T22:08:01.098Z,19.03
2019-02-05T22:10:30.804Z,21.07
2019-02-05T22:13:00.631Z,20.57
2019-02-05T22:15:30.924Z,18.33
2019-02-05T22:18:00.595Z,20.10
2019-02-05T22:20:30.636Z,21.40
2019-02-05T22:23:00.307Z,22.33
2019-02-05T22:25:30.497Z,22.80
2019-02-05T22:28:02.612Z,20.40
2019-02-05T22:30:33.607Z,21.53
2019-02-05T22:33:03.325Z,20.97
2019-02-05T22:35:33.679Z,19.03
2019-02-05T22:38:03.280Z,20.50
2019-02-05T22:40:33.171Z,21.57
2019-02-05T22:43:03.358Z,19.97
2019-02-05T22:45:33.440Z,19.17
2019-02-05T22:48:04.295Z,20.07
2019-02-05T22:50:34.203Z,22.23
2019-02-05T22:53:04.499Z,20.30
2019-02-05T22:55:34.278Z,19.57
2019-02-05T22:58:04.293Z,20.90
2019-02-05T23:01:11.764Z,18.83
2019-02-05T23:03:51.764Z,17.53
2019-02-05T23:06:35.439Z,23.50
2019-02-05T23:09:27.584Z,19.30
2019-02-05T23:12:33.735Z,22.57
2019-02-05T23:15:10.926Z,22.60
2019-02-05T23:17:40.717Z,17.67
2019-02-05T23:20:13.632Z,18.00
2019-02-05T23:22:43.478Z,22.53
2019-02-05T23:25:13.802Z,20.40
2019-02-05T23:27:43.724Z,17.60
2019-02-05T23:30:25.480Z,20.60
2019-02-05T23:32:55.132Z,18.70
2019-02-05T23:35:24.840Z,18.37
2019-02-05T23:37:54.490Z,21.27
2019-02-05T23:40:24.176Z,19.20
2019-02-05T23:42:53.956Z,22.43
2019-02-05T23:45:23.734Z,24.80
2019-02-05T23:47:53.544Z,23.10
2019-02-05T23:50:23.555Z,26.03
2019-02-05T23:52:53.162Z,19.23
2019-02-05T23:55:22.836Z,21.37
2019-02-05T23:57:52.518Z,20.37
